sensor_id;sensor_type;location;lat;lon;timestamp;P1;durP1;ratioP1;P2;durP2;ratioP2
12707;SDS011;6418;50.824;4.718;2022-12-08T00:01:12;53.03;;;23.80;;
12707;SDS011;6418;50.824;4.718;2022-12-08T00:03:41;50.67;;;22.93;;
12707;SDS011;6418;50.824;4.718;2022-12-08T00:06:11;49.67;;;23.03;;
12707;SDS011;6418;50.824;4.718;2022-12-08T00:09:03;52.70;;;24.67;;
12707;SDS011;6418;50.824;4.718;2022-12-08T00:11:53;57.97;;;25.10;;
12707;SDS011;6418;50.824;4.718;2022-12-08T00:14:22;53.07;;;24.70;;
12707;SDS011;6418;50.824;4.718;2022-12-08T00:16:50;58.80;;;26.50;;
12707;SDS011;6418;50.824;4.718;2022-12-08T00:19:17;61.40;;;27.17;;
12707;SDS011;6418;50.824;4.718;2022-12-08T00:21:46;61.47;;;26.57;;
12707;SDS011;6418;50.824;4.718;2022-12-08T00:24:13;62.37;;;27.03;;
12707;SDS011;6418;50.824;4.718;2022-12-08T00:26:40;61.30;;;26.73;;
12707;SDS011;6418;50.824;4.718;2022-12-08T00:29:07;61.80;;;27.53;;
12707;SDS011;6418;50.824;4.718;2022-12-08T00:31:34;67.23;;;27.97;;
12707;SDS011;6418;50.824;4.718;2022-12-08T00:34:01;71.33;;;29.10;;
12707;SDS011;6418;50.824;4.718;2022-12-08T00:36:28;65.80;;;28.97;;
12707;SDS011;6418;50.824;4.718;2022-12-08T00:38:57;68.30;;;28.93;;
12707;SDS011;6418;50.824;4.718;2022-12-08T00:41:25;67.40;;;28.00;;
12707;SDS011;6418;50.824;4.718;2022-12-08T00:44:10;63.27;;;27.90;;
12707;SDS011;6418;50.824;4.718;2022-12-08T00:46:40;63.97;;;28.90;;
12707;SDS011;6418;50.824;4.718;2022-12-08T00:49:07;63.90;;;28.97;;
12707;SDS011;6418;50.824;4.718;2022-12-08T00:51:34;61.47;;;28.30;;
12707;SDS011;6418;50.824;4.718;2022-12-08T00:54:02;70.17;;;31.27;;
12707;SDS011;6418;50.824;4.718;2022-12-08T00:56:30;65.00;;;28.77;;
12707;SDS011;6418;50.824;4.718;2022-12-08T00:58:57;65.03;;;29.20;;
12707;SDS011;6418;50.824;4.718;2022-12-08T01:01:24;66.80;;;29.93;;
12707;SDS011;6418;50.824;4.718;2022-12-08T01:03:51;68.27;;;29.00;;
12707;SDS011;6418;50.824;4.718;2022-12-08T01:06:18;69.57;;;29.30;;
12707;SDS011;6418;50.824;4.718;2022-12-08T01:08:46;69.50;;;29.93;;
12707;SDS011;6418;50.824;4.718;2022-12-08T01:11:14;71.47;;;29.93;;
12707;SDS011;6418;50.824;4.718;2022-12-08T01:13:43;69.07;;;30.27;;
12707;SDS011;6418;50.824;4.718;2022-12-08T01:16:18;73.90;;;30.33;;
12707;SDS011;6418;50.824;4.718;2022-12-08T01:18:46;68.07;;;29.97;;
12707;SDS011;6418;50.824;4.718;2022-12-08T01:21:13;78.80;;;32.43;;
12707;SDS011;6418;50.824;4.718;2022-12-08T01:23:40;70.80;;;30.13;;
12707;SDS011;6418;50.824;4.718;2022-12-08T01:26:08;77.40;;;30.90;;
12707;SDS011;6418;50.824;4.718;2022-12-08T01:28:39;76.30;;;31.40;;
12707;SDS011;6418;50.824;4.718;2022-12-08T01:31:09;71.30;;;31.87;;
12707;SDS011;6418;50.824;4.718;2022-12-08T01:33:37;72.33;;;30.83;;
12707;SDS011;6418;50.824;4.718;2022-12-08T01:36:04;73.93;;;32.63;;
12707;SDS011;6418;50.824;4.718;2022-12-08T01:38:32;78.27;;;31.30;;
12707;SDS011;6418;50.824;4.718;2022-12-08T01:40:59;68.83;;;32.73;;
12707;SDS011;6418;50.824;4.718;2022-12-08T01:46:19;72.60;;;32.90;;
12707;SDS011;6418;50.824;4.718;2022-12-08T01:48:46;69.60;;;32.27;;
12707;SDS011;6418;50.824;4.718;2022-12-08T01:51:15;72.40;;;32.07;;
12707;SDS011;6418;50.824;4.718;2022-12-08T01:53:42;75.20;;;31.83;;
12707;SDS011;6418;50.824;4.718;2022-12-08T01:56:10;75.93;;;31.60;;
12707;SDS011;6418;50.824;4.718;2022-12-08T01:58:41;77.77;;;32.47;;
12707;SDS011;6418;50.824;4.718;2022-12-08T02:01:13;75.67;;;33.43;;
12707;SDS011;6418;50.824;4.718;2022-12-08T02:03:42;78.50;;;32.27;;
12707;SDS011;6418;50.824;4.718;2022-12-08T02:06:13;82.03;;;34.87;;
12707;SDS011;6418;50.824;4.718;2022-12-08T02:08:41;76.77;;;34.43;;
12707;SDS011;6418;50.824;4.718;2022-12-08T02:11:10;80.83;;;34.87;;
12707;SDS011;6418;50.824;4.718;2022-12-08T02:13:38;89.23;;;34.67;;
12707;SDS011;6418;50.824;4.718;2022-12-08T02:16:08;80.63;;;34.43;;
12707;SDS011;6418;50.824;4.718;2022-12-08T02:18:46;85.07;;;34.60;;
12707;SDS011;6418;50.824;4.718;2022-12-08T02:21:22;84.90;;;33.97;;
12707;SDS011;6418;50.824;4.718;2022-12-08T02:23:57;86.43;;;35.90;;
12707;SDS011;6418;50.824;4.718;2022-12-08T02:26:37;86.77;;;35.03;;
12707;SDS011;6418;50.824;4.718;2022-12-08T02:29:32;85.03;;;35.70;;
12707;SDS011;6418;50.824;4.718;2022-12-08T02:32:29;85.37;;;34.43;;
12707;SDS011;6418;50.824;4.718;2022-12-08T02:35:30;82.83;;;34.40;;
12707;SDS011;6418;50.824;4.718;2022-12-08T02:38:03;87.00;;;36.60;;
12707;SDS011;6418;50.824;4.718;2022-12-08T02:40:36;90.07;;;37.60;;
12707;SDS011;6418;50.824;4.718;2022-12-08T02:43:11;91.47;;;37.37;;
12707;SDS011;6418;50.824;4.718;2022-12-08T02:45:42;99.20;;;38.50;;
12707;SDS011;6418;50.824;4.718;2022-12-08T02:48:13;92.73;;;38.27;;
12707;SDS011;6418;50.824;4.718;2022-12-08T02:50:42;91.13;;;36.23;;
12707;SDS011;6418;50.824;4.718;2022-12-08T02:53:08;87.30;;;34.73;;
12707;SDS011;6418;50.824;4.718;2022-12-08T02:55:36;90.73;;;34.90;;
12707;SDS011;6418;50.824;4.718;2022-12-08T02:58:26;114.77;;;37.80;;
12707;SDS011;6418;50.824;4.718;2022-12-08T03:01:12;94.17;;;38.70;;
12707;SDS011;6418;50.824;4.718;2022-12-08T03:03:46;95.43;;;37.03;;
12707;SDS011;6418;50.824;4.718;2022-12-08T03:06:23;94.00;;;35.50;;
12707;SDS011;6418;50.824;4.718;2022-12-08T03:08:57;90.90;;;37.27;;
12707;SDS011;6418;50.824;4.718;2022-12-08T03:11:30;93.90;;;35.43;;
12707;SDS011;6418;50.824;4.718;2022-12-08T03:14:02;95.10;;;36.77;;
12707;SDS011;6418;50.824;4.718;2022-12-08T03:16:34;98.63;;;36.80;;
12707;SDS011;6418;50.824;4.718;2022-12-08T03:19:04;94.50;;;36.83;;
12707;SDS011;6418;50.824;4.718;2022-12-08T03:21:37;91.50;;;35.80;;
12707;SDS011;6418;50.824;4.718;2022-12-08T03:24:06;92.00;;;36.07;;
12707;SDS011;6418;50.824;4.718;2022-12-08T03:26:37;88.83;;;37.37;;
12707;SDS011;6418;50.824;4.718;2022-12-08T03:29:10;92.73;;;36.93;;
12707;SDS011;6418;50.824;4.718;2022-12-08T03:31:38;95.07;;;36.30;;
12707;SDS011;6418;50.824;4.718;2022-12-08T03:34:11;98.40;;;37.50;;
12707;SDS011;6418;50.824;4.718;2022-12-08T03:36:41;98.83;;;36.23;;
12707;SDS011;6418;50.824;4.718;2022-12-08T03:39:09;92.17;;;35.47;;
12707;SDS011;6418;50.824;4.718;2022-12-08T03:41:36;81.33;;;35.50;;
12707;SDS011;6418;50.824;4.718;2022-12-08T03:44:03;88.27;;;34.93;;
12707;SDS011;6418;50.824;4.718;2022-12-08T03:46:30;80.83;;;34.43;;
12707;SDS011;6418;50.824;4.718;2022-12-08T03:48:57;84.67;;;34.10;;
12707;SDS011;6418;50.824;4.718;2022-12-08T03:51:24;75.53;;;31.87;;
12707;SDS011;6418;50.824;4.718;2022-12-08T03:53:53;79.17;;;33.37;;
12707;SDS011;6418;50.824;4.718;2022-12-08T03:56:21;80.93;;;35.37;;
12707;SDS011;6418;50.824;4.718;2022-12-08T03:58:49;80.07;;;32.87;;
12707;SDS011;6418;50.824;4.718;2022-12-08T04:01:17;76.77;;;34.57;;
12707;SDS011;6418;50.824;4.718;2022-12-08T04:03:44;80.13;;;31.17;;
12707;SDS011;6418;50.824;4.718;2022-12-08T04:06:11;81.17;;;34.47;;
12707;SDS011;6418;50.824;4.718;2022-12-08T04:08:37;83.47;;;34.50;;
12707;SDS011;6418;50.824;4.718;2022-12-08T04:11:06;70.30;;;31.13;;
12707;SDS011;6418;50.824;4.718;2022-12-08T04:13:34;89.73;;;34.50;;
12707;SDS011;6418;50.824;4.718;2022-12-08T04:16:02;79.33;;;34.17;;
12707;SDS011;6418;50.824;4.718;2022-12-08T04:18:29;81.13;;;34.53;;
12707;SDS011;6418;50.824;4.718;2022-12-08T04:20:56;88.50;;;35.60;;
12707;SDS011;6418;50.824;4.718;2022-12-08T04:23:23;90.80;;;35.70;;
12707;SDS011;6418;50.824;4.718;2022-12-08T04:25:50;86.97;;;35.27;;
12707;SDS011;6418;50.824;4.718;2022-12-08T04:28:19;78.77;;;32.90;;
12707;SDS011;6418;50.824;4.718;2022-12-08T04:30:46;82.07;;;33.63;;
12707;SDS011;6418;50.824;4.718;2022-12-08T04:33:14;77.00;;;33.53;;
12707;SDS011;6418;50.824;4.718;2022-12-08T04:35:40;83.90;;;33.90;;
12707;SDS011;6418;50.824;4.718;2022-12-08T04:38:08;71.00;;;32.47;;
12707;SDS011;6418;50.824;4.718;2022-12-08T04:40:34;72.47;;;32.63;;
12707;SDS011;6418;50.824;4.718;2022-12-08T04:43:01;72.33;;;33.47;;
12707;SDS011;6418;50.824;4.718;2022-12-08T04:45:30;69.33;;;32.53;;
12707;SDS011;6418;50.824;4.718;2022-12-08T04:47:56;73.37;;;33.13;;
12707;SDS011;6418;50.824;4.718;2022-12-08T04:50:23;79.47;;;35.47;;
12707;SDS011;6418;50.824;4.718;2022-12-08T04:52:51;68.00;;;30.57;;
12707;SDS011;6418;50.824;4.718;2022-12-08T04:55:17;69.00;;;31.77;;
12707;SDS011;6418;50.824;4.718;2022-12-08T04:57:45;69.80;;;31.83;;
12707;SDS011;6418;50.824;4.718;2022-12-08T05:00:12;65.37;;;30.17;;
12707;SDS011;6418;50.824;4.718;2022-12-08T05:02:41;67.47;;;32.10;;
12707;SDS011;6418;50.824;4.718;2022-12-08T05:05:08;70.20;;;31.03;;
12707;SDS011;6418;50.824;4.718;2022-12-08T05:07:35;62.80;;;30.93;;
12707;SDS011;6418;50.824;4.718;2022-12-08T05:10:02;64.87;;;30.33;;
12707;SDS011;6418;50.824;4.718;2022-12-08T05:12:29;69.37;;;33.33;;
12707;SDS011;6418;50.824;4.718;2022-12-08T05:14:56;69.10;;;29.47;;
12707;SDS011;6418;50.824;4.718;2022-12-08T05:17:23;65.90;;;29.63;;
12707;SDS011;6418;50.824;4.718;2022-12-08T05:19:51;65.87;;;32.73;;
12707;SDS011;6418;50.824;4.718;2022-12-08T05:22:18;61.83;;;30.53;;
12707;SDS011;6418;50.824;4.718;2022-12-08T05:24:45;68.97;;;30.20;;
12707;SDS011;6418;50.824;4.718;2022-12-08T05:27:12;66.53;;;30.00;;
12707;SDS011;6418;50.824;4.718;2022-12-08T05:29:39;61.77;;;30.53;;
12707;SDS011;6418;50.824;4.718;2022-12-08T05:32:06;64.43;;;29.50;;
12707;SDS011;6418;50.824;4.718;2022-12-08T05:34:33;60.00;;;30.17;;
12707;SDS011;6418;50.824;4.718;2022-12-08T05:37:01;59.17;;;30.03;;
12707;SDS011;6418;50.824;4.718;2022-12-08T05:39:28;74.10;;;31.30;;
12707;SDS011;6418;50.824;4.718;2022-12-08T05:41:55;61.33;;;29.60;;
12707;SDS011;6418;50.824;4.718;2022-12-08T05:44:22;67.57;;;31.80;;
12707;SDS011;6418;50.824;4.718;2022-12-08T05:46:49;65.50;;;31.37;;
12707;SDS011;6418;50.824;4.718;2022-12-08T05:49:16;70.03;;;31.97;;
12707;SDS011;6418;50.824;4.718;2022-12-08T05:51:43;71.50;;;31.87;;
12707;SDS011;6418;50.824;4.718;2022-12-08T05:54:11;62.50;;;29.90;;
12707;SDS011;6418;50.824;4.718;2022-12-08T05:56:39;65.33;;;32.57;;
12707;SDS011;6418;50.824;4.718;2022-12-08T05:59:06;70.90;;;30.63;;
12707;SDS011;6418;50.824;4.718;2022-12-08T06:01:33;60.00;;;30.67;;
12707;SDS011;6418;50.824;4.718;2022-12-08T06:04:01;58.67;;;30.43;;
12707;SDS011;6418;50.824;4.718;2022-12-08T06:06:29;67.47;;;29.77;;
12707;SDS011;6418;50.824;4.718;2022-12-08T06:08:57;57.17;;;28.00;;
12707;SDS011;6418;50.824;4.718;2022-12-08T06:11:27;65.40;;;30.03;;
12707;SDS011;6418;50.824;4.718;2022-12-08T06:13:55;66.50;;;30.40;;
12707;SDS011;6418;50.824;4.718;2022-12-08T06:16:23;59.07;;;27.90;;
12707;SDS011;6418;50.824;4.718;2022-12-08T06:18:51;65.70;;;27.90;;
12707;SDS011;6418;50.824;4.718;2022-12-08T06:21:18;57.30;;;28.40;;
12707;SDS011;6418;50.824;4.718;2022-12-08T06:23:46;57.03;;;27.53;;
12707;SDS011;6418;50.824;4.718;2022-12-08T06:26:14;60.90;;;27.90;;
12707;SDS011;6418;50.824;4.718;2022-12-08T06:28:43;63.40;;;30.00;;
12707;SDS011;6418;50.824;4.718;2022-12-08T06:31:11;62.27;;;28.70;;
12707;SDS011;6418;50.824;4.718;2022-12-08T06:33:40;61.23;;;28.60;;
12707;SDS011;6418;50.824;4.718;2022-12-08T06:36:09;61.43;;;29.53;;
12707;SDS011;6418;50.824;4.718;2022-12-08T06:38:36;57.07;;;28.20;;
12707;SDS011;6418;50.824;4.718;2022-12-08T06:41:04;57.87;;;29.17;;
12707;SDS011;6418;50.824;4.718;2022-12-08T06:43:31;54.87;;;26.33;;
12707;SDS011;6418;50.824;4.718;2022-12-08T06:46:03;67.53;;;27.53;;
12707;SDS011;6418;50.824;4.718;2022-12-08T06:48:31;53.97;;;26.70;;
12707;SDS011;6418;50.824;4.718;2022-12-08T06:51:04;53.47;;;26.87;;
12707;SDS011;6418;50.824;4.718;2022-12-08T06:53:32;60.30;;;26.77;;
12707;SDS011;6418;50.824;4.718;2022-12-08T06:55:59;61.30;;;26.23;;
12707;SDS011;6418;50.824;4.718;2022-12-08T06:58:25;54.40;;;26.37;;
12707;SDS011;6418;50.824;4.718;2022-12-08T07:00:52;54.97;;;26.83;;
12707;SDS011;6418;50.824;4.718;2022-12-08T07:03:20;52.73;;;25.63;;
12707;SDS011;6418;50.824;4.718;2022-12-08T07:05:48;52.63;;;25.10;;
12707;SDS011;6418;50.824;4.718;2022-12-08T07:08:14;52.20;;;25.80;;
12707;SDS011;6418;50.824;4.718;2022-12-08T07:10:41;55.50;;;25.00;;
12707;SDS011;6418;50.824;4.718;2022-12-08T07:13:08;49.20;;;23.10;;
12707;SDS011;6418;50.824;4.718;2022-12-08T07:15:35;52.70;;;24.93;;
12707;SDS011;6418;50.824;4.718;2022-12-08T07:18:02;53.60;;;25.47;;
12707;SDS011;6418;50.824;4.718;2022-12-08T07:20:30;54.50;;;24.97;;
12707;SDS011;6418;50.824;4.718;2022-12-08T07:22:57;58.37;;;25.77;;
12707;SDS011;6418;50.824;4.718;2022-12-08T07:25:24;57.97;;;28.13;;
12707;SDS011;6418;50.824;4.718;2022-12-08T07:27:51;54.43;;;24.50;;
12707;SDS011;6418;50.824;4.718;2022-12-08T07:30:18;53.10;;;26.27;;
12707;SDS011;6418;50.824;4.718;2022-12-08T07:32:45;53.10;;;24.87;;
12707;SDS011;6418;50.824;4.718;2022-12-08T07:35:12;51.20;;;25.77;;
12707;SDS011;6418;50.824;4.718;2022-12-08T07:37:41;55.77;;;25.37;;
12707;SDS011;6418;50.824;4.718;2022-12-08T07:40:08;52.03;;;24.53;;
12707;SDS011;6418;50.824;4.718;2022-12-08T07:42:36;55.90;;;25.77;;
12707;SDS011;6418;50.824;4.718;2022-12-08T07:45:03;52.40;;;24.27;;
12707;SDS011;6418;50.824;4.718;2022-12-08T07:47:30;52.23;;;23.43;;
12707;SDS011;6418;50.824;4.718;2022-12-08T07:49:57;51.07;;;24.63;;
12707;SDS011;6418;50.824;4.718;2022-12-08T07:52:24;50.80;;;24.63;;
12707;SDS011;6418;50.824;4.718;2022-12-08T07:54:52;52.40;;;24.90;;
12707;SDS011;6418;50.824;4.718;2022-12-08T07:57:19;57.00;;;26.27;;
12707;SDS011;6418;50.824;4.718;2022-12-08T07:59:46;54.70;;;28.00;;
12707;SDS011;6418;50.824;4.718;2022-12-08T08:02:15;52.77;;;24.70;;
12707;SDS011;6418;50.824;4.718;2022-12-08T08:04:42;48.23;;;24.97;;
12707;SDS011;6418;50.824;4.718;2022-12-08T08:07:09;51.43;;;25.30;;
12707;SDS011;6418;50.824;4.718;2022-12-08T08:09:36;53.40;;;25.53;;
12707;SDS011;6418;50.824;4.718;2022-12-08T08:12:05;50.23;;;24.23;;
12707;SDS011;6418;50.824;4.718;2022-12-08T08:14:32;52.73;;;24.57;;
12707;SDS011;6418;50.824;4.718;2022-12-08T08:16:59;51.93;;;24.80;;
12707;SDS011;6418;50.824;4.718;2022-12-08T08:19:26;45.23;;;23.33;;
12707;SDS011;6418;50.824;4.718;2022-12-08T08:21:53;52.60;;;24.83;;
12707;SDS011;6418;50.824;4.718;2022-12-08T08:24:20;57.47;;;25.73;;
12707;SDS011;6418;50.824;4.718;2022-12-08T08:26:48;51.13;;;25.47;;
12707;SDS011;6418;50.824;4.718;2022-12-08T08:29:18;51.37;;;24.37;;
12707;SDS011;6418;50.824;4.718;2022-12-08T08:31:45;45.33;;;23.27;;
12707;SDS011;6418;50.824;4.718;2022-12-08T08:34:12;53.43;;;24.60;;
12707;SDS011;6418;50.824;4.718;2022-12-08T08:36:39;47.23;;;21.97;;
12707;SDS011;6418;50.824;4.718;2022-12-08T08:39:06;50.50;;;24.50;;
12707;SDS011;6418;50.824;4.718;2022-12-08T08:41:33;49.17;;;23.47;;
12707;SDS011;6418;50.824;4.718;2022-12-08T08:44:00;47.47;;;24.03;;
12707;SDS011;6418;50.824;4.718;2022-12-08T08:46:28;46.40;;;22.33;;
12707;SDS011;6418;50.824;4.718;2022-12-08T08:48:56;49.60;;;23.40;;
12707;SDS011;6418;50.824;4.718;2022-12-08T08:51:23;48.57;;;23.63;;
12707;SDS011;6418;50.824;4.718;2022-12-08T08:53:50;47.20;;;22.90;;
12707;SDS011;6418;50.824;4.718;2022-12-08T08:56:17;49.40;;;23.90;;
12707;SDS011;6418;50.824;4.718;2022-12-08T08:58:45;50.23;;;24.37;;
12707;SDS011;6418;50.824;4.718;2022-12-08T09:01:14;47.77;;;23.30;;
12707;SDS011;6418;50.824;4.718;2022-12-08T09:03:43;47.17;;;25.50;;
12707;SDS011;6418;50.824;4.718;2022-12-08T09:06:11;47.33;;;23.63;;
12707;SDS011;6418;50.824;4.718;2022-12-08T09:08:39;51.73;;;24.03;;
12707;SDS011;6418;50.824;4.718;2022-12-08T09:11:06;50.17;;;24.07;;
12707;SDS011;6418;50.824;4.718;2022-12-08T09:13:33;49.33;;;23.30;;
12707;SDS011;6418;50.824;4.718;2022-12-08T09:16:01;45.77;;;24.47;;
12707;SDS011;6418;50.824;4.718;2022-12-08T09:18:28;48.27;;;25.40;;
12707;SDS011;6418;50.824;4.718;2022-12-08T09:20:59;45.17;;;24.43;;
12707;SDS011;6418;50.824;4.718;2022-12-08T09:23:29;49.33;;;25.17;;
12707;SDS011;6418;50.824;4.718;2022-12-08T09:25:56;46.20;;;24.63;;
12707;SDS011;6418;50.824;4.718;2022-12-08T09:28:23;47.17;;;24.60;;
12707;SDS011;6418;50.824;4.718;2022-12-08T09:30:50;45.60;;;24.33;;
12707;SDS011;6418;50.824;4.718;2022-12-08T09:33:17;46.90;;;24.77;;
12707;SDS011;6418;50.824;4.718;2022-12-08T09:35:44;47.17;;;25.17;;
12707;SDS011;6418;50.824;4.718;2022-12-08T09:38:13;48.23;;;25.47;;
12707;SDS011;6418;50.824;4.718;2022-12-08T09:40:41;47.03;;;24.97;;
12707;SDS011;6418;50.824;4.718;2022-12-08T09:43:18;48.10;;;24.70;;
12707;SDS011;6418;50.824;4.718;2022-12-08T09:45:58;46.47;;;23.20;;
12707;SDS011;6418;50.824;4.718;2022-12-08T09:48:29;47.90;;;24.20;;
12707;SDS011;6418;50.824;4.718;2022-12-08T09:50:59;47.47;;;23.30;;
12707;SDS011;6418;50.824;4.718;2022-12-08T09:53:29;44.67;;;21.73;;
12707;SDS011;6418;50.824;4.718;2022-12-08T09:56:02;46.57;;;23.43;;
12707;SDS011;6418;50.824;4.718;2022-12-08T09:58:35;42.57;;;22.10;;
12707;SDS011;6418;50.824;4.718;2022-12-08T10:01:11;45.43;;;21.97;;
12707;SDS011;6418;50.824;4.718;2022-12-08T10:03:39;39.90;;;21.10;;
12707;SDS011;6418;50.824;4.718;2022-12-08T10:06:08;43.87;;;21.27;;
12707;SDS011;6418;50.824;4.718;2022-12-08T10:08:46;45.63;;;21.83;;
12707;SDS011;6418;50.824;4.718;2022-12-08T10:11:21;46.30;;;21.20;;
12707;SDS011;6418;50.824;4.718;2022-12-08T10:13:54;41.33;;;21.37;;
12707;SDS011;6418;50.824;4.718;2022-12-08T10:16:32;40.67;;;20.63;;
12707;SDS011;6418;50.824;4.718;2022-12-08T10:19:07;44.63;;;20.47;;
12707;SDS011;6418;50.824;4.718;2022-12-08T10:21:38;36.60;;;19.80;;
12707;SDS011;6418;50.824;4.718;2022-12-08T10:24:10;39.43;;;20.40;;
12707;SDS011;6418;50.824;4.718;2022-12-08T10:26:43;37.97;;;20.70;;
12707;SDS011;6418;50.824;4.718;2022-12-08T10:29:12;38.30;;;19.13;;
12707;SDS011;6418;50.824;4.718;2022-12-08T10:31:40;36.93;;;19.37;;
12707;SDS011;6418;50.824;4.718;2022-12-08T10:34:14;38.30;;;18.77;;
12707;SDS011;6418;50.824;4.718;2022-12-08T10:36:44;35.80;;;18.27;;
12707;SDS011;6418;50.824;4.718;2022-12-08T10:39:31;36.83;;;18.57;;
12707;SDS011;6418;50.824;4.718;2022-12-08T10:42:01;35.77;;;18.17;;
12707;SDS011;6418;50.824;4.718;2022-12-08T10:44:33;34.53;;;18.60;;
12707;SDS011;6418;50.824;4.718;2022-12-08T10:47:13;36.00;;;18.40;;
12707;SDS011;6418;50.824;4.718;2022-12-08T10:49:40;33.90;;;18.43;;
12707;SDS011;6418;50.824;4.718;2022-12-08T10:52:08;37.23;;;18.33;;
12707;SDS011;6418;50.824;4.718;2022-12-08T10:54:51;34.10;;;19.03;;
12707;SDS011;6418;50.824;4.718;2022-12-08T10:57:19;32.80;;;18.03;;
12707;SDS011;6418;50.824;4.718;2022-12-08T10:59:49;34.77;;;18.63;;
12707;SDS011;6418;50.824;4.718;2022-12-08T11:02:19;33.73;;;16.80;;
12707;SDS011;6418;50.824;4.718;2022-12-08T11:04:48;32.40;;;16.37;;
12707;SDS011;6418;50.824;4.718;2022-12-08T11:07:24;32.80;;;17.30;;
12707;SDS011;6418;50.824;4.718;2022-12-08T11:09:53;31.37;;;15.33;;
12707;SDS011;6418;50.824;4.718;2022-12-08T11:12:23;30.70;;;15.37;;
12707;SDS011;6418;50.824;4.718;2022-12-08T11:14:54;30.30;;;14.07;;
12707;SDS011;6418;50.824;4.718;2022-12-08T11:17:26;26.63;;;12.90;;
12707;SDS011;6418;50.824;4.718;2022-12-08T11:20:01;25.23;;;12.80;;
12707;SDS011;6418;50.824;4.718;2022-12-08T11:22:43;22.43;;;11.57;;
12707;SDS011;6418;50.824;4.718;2022-12-08T11:25:15;26.63;;;12.60;;
12707;SDS011;6418;50.824;4.718;2022-12-08T11:27:46;24.53;;;11.63;;
12707;SDS011;6418;50.824;4.718;2022-12-08T11:30:15;24.77;;;12.17;;
12707;SDS011;6418;50.824;4.718;2022-12-08T11:32:44;24.27;;;12.17;;
12707;SDS011;6418;50.824;4.718;2022-12-08T11:35:16;22.70;;;12.50;;
12707;SDS011;6418;50.824;4.718;2022-12-08T11:37:48;37.53;;;17.80;;
12707;SDS011;6418;50.824;4.718;2022-12-08T11:40:18;28.30;;;12.57;;
12707;SDS011;6418;50.824;4.718;2022-12-08T11:42:50;28.80;;;15.47;;
12707;SDS011;6418;50.824;4.718;2022-12-08T11:45:23;25.77;;;12.60;;
12707;SDS011;6418;50.824;4.718;2022-12-08T11:47:55;29.70;;;15.57;;
12707;SDS011;6418;50.824;4.718;2022-12-08T11:50:30;21.60;;;12.03;;
12707;SDS011;6418;50.824;4.718;2022-12-08T11:53:07;25.77;;;13.97;;
12707;SDS011;6418;50.824;4.718;2022-12-08T11:55:44;28.03;;;15.30;;
12707;SDS011;6418;50.824;4.718;2022-12-08T11:58:17;27.60;;;14.80;;
12707;SDS011;6418;50.824;4.718;2022-12-08T12:00:46;23.47;;;13.03;;
12707;SDS011;6418;50.824;4.718;2022-12-08T12:03:16;23.43;;;12.67;;
12707;SDS011;6418;50.824;4.718;2022-12-08T12:05:54;23.83;;;11.97;;
12707;SDS011;6418;50.824;4.718;2022-12-08T12:08:46;22.47;;;11.67;;
12707;SDS011;6418;50.824;4.718;2022-12-08T12:11:28;21.73;;;10.97;;
12707;SDS011;6418;50.824;4.718;2022-12-08T12:14:24;26.40;;;11.57;;
12707;SDS011;6418;50.824;4.718;2022-12-08T12:17:08;23.63;;;11.80;;
12707;SDS011;6418;50.824;4.718;2022-12-08T12:19:54;20.73;;;10.50;;
12707;SDS011;6418;50.824;4.718;2022-12-08T12:22:24;20.07;;;9.97;;
12707;SDS011;6418;50.824;4.718;2022-12-08T12:24:58;20.77;;;10.70;;
12707;SDS011;6418;50.824;4.718;2022-12-08T12:27:27;22.20;;;10.37;;
12707;SDS011;6418;50.824;4.718;2022-12-08T12:29:59;20.13;;;10.87;;
12707;SDS011;6418;50.824;4.718;2022-12-08T12:32:38;19.93;;;10.50;;
12707;SDS011;6418;50.824;4.718;2022-12-08T12:35:12;21.17;;;9.90;;
12707;SDS011;6418;50.824;4.718;2022-12-08T12:37:42;20.63;;;9.80;;
12707;SDS011;6418;50.824;4.718;2022-12-08T12:40:14;18.90;;;9.57;;
12707;SDS011;6418;50.824;4.718;2022-12-08T12:42:45;20.97;;;10.40;;
12707;SDS011;6418;50.824;4.718;2022-12-08T12:45:34;21.13;;;9.93;;
12707;SDS011;6418;50.824;4.718;2022-12-08T12:48:19;25.17;;;10.80;;
12707;SDS011;6418;50.824;4.718;2022-12-08T12:50:51;20.87;;;10.23;;
12707;SDS011;6418;50.824;4.718;2022-12-08T12:56:26;21.30;;;10.27;;
12707;SDS011;6418;50.824;4.718;2022-12-08T13:02:16;19.23;;;9.67;;
12707;SDS011;6418;50.824;4.718;2022-12-08T13:04:56;18.13;;;8.27;;
12707;SDS011;6418;50.824;4.718;2022-12-08T13:07:26;15.50;;;8.40;;
12707;SDS011;6418;50.824;4.718;2022-12-08T13:09:58;16.87;;;8.20;;
12707;SDS011;6418;50.824;4.718;2022-12-08T13:12:28;15.00;;;8.17;;
12707;SDS011;6418;50.824;4.718;2022-12-08T13:14:59;16.80;;;8.23;;
12707;SDS011;6418;50.824;4.718;2022-12-08T13:17:30;17.93;;;8.00;;
12707;SDS011;6418;50.824;4.718;2022-12-08T13:19:59;16.63;;;8.37;;
12707;SDS011;6418;50.824;4.718;2022-12-08T13:22:49;20.90;;;7.77;;
12707;SDS011;6418;50.824;4.718;2022-12-08T13:25:44;18.23;;;8.37;;
12707;SDS011;6418;50.824;4.718;2022-12-08T13:28:15;15.60;;;7.60;;
12707;SDS011;6418;50.824;4.718;2022-12-08T13:30:49;15.17;;;7.47;;
12707;SDS011;6418;50.824;4.718;2022-12-08T13:33:18;18.80;;;8.03;;
12707;SDS011;6418;50.824;4.718;2022-12-08T13:35:54;18.80;;;8.70;;
12707;SDS011;6418;50.824;4.718;2022-12-08T13:38:29;18.43;;;8.67;;
12707;SDS011;6418;50.824;4.718;2022-12-08T13:41:00;19.07;;;8.43;;
12707;SDS011;6418;50.824;4.718;2022-12-08T13:43:34;16.80;;;7.73;;
12707;SDS011;6418;50.824;4.718;2022-12-08T13:46:05;16.47;;;7.57;;
12707;SDS011;6418;50.824;4.718;2022-12-08T13:48:38;17.70;;;8.07;;
12707;SDS011;6418;50.824;4.718;2022-12-08T13:51:12;17.90;;;8.10;;
12707;SDS011;6418;50.824;4.718;2022-12-08T13:53:44;19.03;;;8.47;;
12707;SDS011;6418;50.824;4.718;2022-12-08T13:56:20;16.57;;;7.70;;
12707;SDS011;6418;50.824;4.718;2022-12-08T13:58:48;19.43;;;7.67;;
12707;SDS011;6418;50.824;4.718;2022-12-08T14:01:17;18.83;;;8.40;;
12707;SDS011;6418;50.824;4.718;2022-12-08T14:03:48;19.13;;;8.30;;
12707;SDS011;6418;50.824;4.718;2022-12-08T14:06:17;16.20;;;7.87;;
12707;SDS011;6418;50.824;4.718;2022-12-08T14:08:50;22.60;;;7.67;;
12707;SDS011;6418;50.824;4.718;2022-12-08T14:11:22;22.50;;;9.00;;
12707;SDS011;6418;50.824;4.718;2022-12-08T14:13:59;18.67;;;8.40;;
12707;SDS011;6418;50.824;4.718;2022-12-08T14:16:29;20.83;;;9.27;;
12707;SDS011;6418;50.824;4.718;2022-12-08T14:19:05;16.57;;;8.47;;
12707;SDS011;6418;50.824;4.718;2022-12-08T14:21:40;18.60;;;8.83;;
12707;SDS011;6418;50.824;4.718;2022-12-08T14:24:07;16.37;;;8.60;;
12707;SDS011;6418;50.824;4.718;2022-12-08T14:26:36;19.10;;;8.97;;
12707;SDS011;6418;50.824;4.718;2022-12-08T14:29:05;19.90;;;8.70;;
12707;SDS011;6418;50.824;4.718;2022-12-08T14:31:34;19.53;;;9.67;;
12707;SDS011;6418;50.824;4.718;2022-12-08T14:34:01;22.73;;;8.83;;
12707;SDS011;6418;50.824;4.718;2022-12-08T14:36:28;23.47;;;9.23;;
12707;SDS011;6418;50.824;4.718;2022-12-08T14:38:57;17.70;;;8.93;;
12707;SDS011;6418;50.824;4.718;2022-12-08T14:41:25;17.87;;;9.27;;
12707;SDS011;6418;50.824;4.718;2022-12-08T14:43:57;17.07;;;9.20;;
12707;SDS011;6418;50.824;4.718;2022-12-08T14:46:25;18.13;;;9.00;;
12707;SDS011;6418;50.824;4.718;2022-12-08T14:48:54;24.37;;;10.23;;
12707;SDS011;6418;50.824;4.718;2022-12-08T14:51:25;18.27;;;8.63;;
12707;SDS011;6418;50.824;4.718;2022-12-08T14:53:56;19.67;;;9.53;;
12707;SDS011;6418;50.824;4.718;2022-12-08T14:56:27;19.60;;;9.20;;
12707;SDS011;6418;50.824;4.718;2022-12-08T14:59:02;18.50;;;10.03;;
12707;SDS011;6418;50.824;4.718;2022-12-08T15:01:32;15.63;;;7.07;;
12707;SDS011;6418;50.824;4.718;2022-12-08T15:04:01;11.00;;;5.83;;